Time;durP1;ratioP1;P1;durP2;ratioP2;P2;SDS_P1;SDS_P2;PMS_P1;PMS_P2;Temp;Humidity;BMP_temperature;BMP_pressure;BME280_temperature;BME280_humidity;BME280_pressure;Samples;Min_cycle;Max_cycle;Signal;HPM_P1;HPM_P2
2023/09/09 00:00:58;;;;;;;5.80;3.72;;;24.40;70.70;;;;;;5114932;28;20096;-59
2023/09/09 00:03:25;;;;;;;5.95;4.05;;;24.40;70.70;;;;;;5114476;28;20383;-58
2023/09/09 00:05:51;;;;;;;6.05;3.78;;;24.40;70.70;;;;;;5113748;28;20130;-59
2023/09/09 00:08:18;;;;;;;5.15;3.83;;;24.40;70.70;;;;;;5113312;28;20123;-58
2023/09/09 00:10:44;;;;;;;5.40;3.92;;;24.40;70.70;;;;;;5114838;28;20062;-58
2023/09/09 00:13:10;;;;;;;5.25;3.72;;;24.40;70.80;;;;;;5113876;28;20403;-58
2023/09/09 00:15:35;;;;;;;6.25;4.20;;;24.40;70.80;;;;;;5113037;28;20031;-59
2023/09/09 00:18:02;;;;;;;6.63;4.32;;;24.40;71.40;;;;;;5114133;28;20112;-59
2023/09/09 00:20:38;;;;;;;5.53;4.25;;;24.40;70.80;;;;;;5129987;27;20046;-59
2023/09/09 00:23:07;;;;;;;5.28;3.97;;;24.40;70.80;;;;;;5114732;28;20071;-58
2023/09/09 00:25:36;;;;;;;4.97;3.85;;;24.30;70.80;;;;;;5113215;28;20036;-59
2023/09/09 00:28:02;;;;;;;5.30;3.90;;;24.30;70.80;;;;;;5113817;28;20495;-58
2023/09/09 00:30:28;;;;;;;5.13;3.80;;;24.30;70.80;;;;;;5114282;28;20036;-59
2023/09/09 00:32:54;;;;;;;7.85;4.13;;;24.30;70.70;;;;;;5113878;28;20131;-58
2023/09/09 00:35:20;;;;;;;6.90;4.05;;;24.30;70.80;;;;;;5113329;28;20475;-58
2023/09/09 00:37:45;;;;;;;5.15;3.80;;;24.30;70.80;;;;;;5113574;28;20055;-59
2023/09/09 00:40:11;;;;;;;5.93;4.35;;;24.30;70.80;;;;;;5114230;28;20108;-58
2023/09/09 00:42:37;;;;;;;6.18;4.30;;;24.30;70.80;;;;;;5113207;28;20047;-58
2023/09/09 00:45:03;;;;;;;6.30;4.00;;;24.30;70.80;;;;;;5114127;28;20471;-59
2023/09/09 00:47:28;;;;;;;5.70;4.25;;;24.30;70.80;;;;;;5099860;28;20040;-59
2023/09/09 00:49:54;;;;;;;5.82;4.10;;;24.30;70.80;;;;;;5074465;28;20537;-59
2023/09/09 00:52:19;;;;;;;4.25;3.67;;;24.30;70.80;;;;;;5092177;28;20426;-58
2023/09/09 00:54:45;;;;;;;6.53;4.20;;;24.30;70.80;;;;;;5091748;28;20040;-59
2023/09/09 00:57:11;;;;;;;5.65;4.20;;;24.30;70.80;;;;;;5075287;28;20584;-59
2023/09/09 00:59:36;;;;;;;6.22;4.60;;;24.30;70.80;;;;;;5091613;28;20044;-58
2023/09/09 01:02:02;;;;;;;7.47;4.28;;;24.30;70.80;;;;;;5093320;28;20071;-58
2023/09/09 01:04:28;;;;;;;7.05;4.35;;;24.30;70.90;;;;;;5092066;28;20123;-58
2023/09/09 01:06:53;;;;;;;5.70;4.40;;;24.30;70.90;;;;;;5093431;28;20051;-59
2023/09/09 01:09:19;;;;;;;5.60;4.22;;;24.20;70.80;;;;;;5111951;28;20039;-58
2023/09/09 01:11:44;;;;;;;5.82;4.40;;;24.20;70.80;;;;;;5112626;28;20039;-58
2023/09/09 01:14:11;;;;;;;5.75;4.38;;;24.20;70.80;;;;;;5113431;28;20051;-59
2023/09/09 01:16:36;;;;;;;6.45;4.55;;;24.20;70.90;;;;;;5098528;28;20044;-59
2023/09/09 01:19:02;;;;;;;5.55;4.20;;;24.20;70.80;;;;;;5091265;28;20048;-59
2023/09/09 01:21:28;;;;;;;5.43;4.28;;;24.20;70.90;;;;;;5091422;28;20495;-58
2023/09/09 01:23:54;;;;;;;6.00;4.70;;;24.20;70.90;;;;;;5090743;28;20051;-58
2023/09/09 01:26:20;;;;;;;5.72;4.35;;;24.20;70.90;;;;;;5092014;28;20399;-59
2023/09/09 01:28:45;;;;;;;5.30;4.28;;;24.20;70.90;;;;;;5092365;28;20048;-58
2023/09/09 01:31:12;;;;;;;6.15;4.45;;;24.20;70.90;;;;;;5091010;28;20051;-58
2023/09/09 01:33:38;;;;;;;6.00;4.65;;;24.20;70.90;;;;;;5093012;28;20087;-58
2023/09/09 01:36:04;;;;;;;5.95;4.50;;;24.20;70.90;;;;;;5092589;28;20063;-58
2023/09/09 01:38:34;;;;;;;5.75;4.25;;;24.20;70.90;;;;;;5091939;28;20487;-58
2023/09/09 01:41:00;;;;;;;6.32;4.97;;;24.20;70.90;;;;;;5092810;28;20075;-58
2023/09/09 01:43:25;;;;;;;6.18;4.78;;;24.20;70.90;;;;;;5091400;28;20051;-58
2023/09/09 01:45:51;;;;;;;6.25;4.55;;;24.20;70.90;;;;;;5109772;28;20534;-59
2023/09/09 01:48:16;;;;;;;6.07;4.53;;;24.20;70.90;;;;;;5112782;28;20044;-59
2023/09/09 01:50:44;;;;;;;5.85;4.55;;;24.20;70.90;;;;;;5112687;28;20055;-58
2023/09/09 01:53:09;;;;;;;5.85;4.80;;;24.20;70.90;;;;;;5112640;28;20054;-58
2023/09/09 01:55:35;;;;;;;5.95;4.30;;;24.20;71.00;;;;;;5111547;28;20039;-58
2023/09/09 01:58:01;;;;;;;6.60;5.03;;;24.20;71.00;;;;;;5112315;28;20063;-59
2023/09/09 02:00:30;;;;;;;7.07;4.25;;;24.10;70.90;;;;;;5109170;28;20035;-58
2023/09/09 02:02:56;;;;;;;5.75;4.50;;;24.20;71.00;;;;;;5089572;28;20044;-58
2023/09/09 02:05:27;;;;;;;5.40;4.45;;;24.20;71.00;;;;;;5071275;28;20089;-59
2023/09/09 02:07:53;;;;;;;5.70;4.30;;;24.20;71.00;;;;;;5070636;28;20089;-59
2023/09/09 02:10:18;;;;;;;6.00;4.63;;;24.10;70.90;;;;;;5072192;28;20115;-58
2023/09/09 02:12:44;;;;;;;6.22;4.65;;;24.10;70.90;;;;;;5071485;28;20068;-59
2023/09/09 02:15:11;;;;;;;6.35;4.63;;;24.10;70.90;;;;;;5072263;28;20048;-59
2023/09/09 02:17:37;;;;;;;6.43;4.57;;;24.10;70.90;;;;;;5072010;28;20055;-59
2023/09/09 02:20:04;;;;;;;8.88;4.80;;;24.10;70.90;;;;;;5071710;28;20365;-59
2023/09/09 02:22:30;;;;;;;6.00;4.57;;;24.10;71.00;;;;;;5072642;28;20145;-59
2023/09/09 02:24:55;;;;;;;7.85;4.75;;;24.10;71.00;;;;;;5070673;28;20495;-59
2023/09/09 02:27:22;;;;;;;5.43;4.30;;;24.10;71.00;;;;;;5071450;28;20052;-58
2023/09/09 02:29:47;;;;;;;5.70;4.45;;;24.10;71.00;;;;;;5072056;28;20052;-58
2023/09/09 02:32:13;;;;;;;5.68;4.70;;;24.10;71.00;;;;;;5072101;28;20065;-59
2023/09/09 02:34:38;;;;;;;6.97;4.57;;;24.10;71.00;;;;;;5069693;28;20473;-58
2023/09/09 02:37:30;;;;;;;5.97;4.28;;;24.10;71.00;;;;;;5071900;28;20098;-58
2023/09/09 02:39:56;;;;;;;5.88;4.88;;;24.10;70.90;;;;;;5070436;28;20045;-59
2023/09/09 02:42:23;;;;;;;5.88;4.43;;;24.10;71.00;;;;;;5071347;28;20040;-58
2023/09/09 02:44:49;;;;;;;6.63;4.70;;;24.00;71.00;;;;;;5089496;28;20137;-58
2023/09/09 02:47:15;;;;;;;6.75;4.95;;;24.00;70.90;;;;;;5111899;28;20044;-59
2023/09/09 02:49:41;;;;;;;6.25;4.75;;;24.00;71.00;;;;;;5112401;28;20505;-58
2023/09/09 02:52:09;;;;;;;5.68;4.80;;;24.10;71.00;;;;;;5112819;28;20039;-58
2023/09/09 02:54:35;;;;;;;5.88;4.65;;;24.10;71.00;;;;;;5113282;28;20407;-58
2023/09/09 02:57:03;;;;;;;5.43;4.38;;;24.00;71.00;;;;;;5116301;28;20035;-60
2023/09/09 02:59:29;;;;;;;;;;;24.10;71.00;;;;;;5116643;28;20040;-59
2023/09/09 03:01:55;;;;;;;6.38;4.88;;;24.00;70.90;;;;;;5115009;28;19926;-59
2023/09/09 03:04:21;;;;;;;6.75;5.15;;;24.00;71.00;;;;;;5115953;28;20043;-58
2023/09/09 03:06:46;;;;;;;6.25;4.85;;;24.00;71.60;;;;;;5114679;28;20067;-58
2023/09/09 03:09:15;;;;;;;5.90;4.72;;;24.00;71.00;;;;;;5114920;28;20043;-58
2023/09/09 03:11:40;;;;;;;5.72;4.78;;;24.00;71.00;;;;;;5115962;28;20040;-59
2023/09/09 03:14:06;;;;;;;6.13;4.90;;;24.00;71.00;;;;;;5116281;28;20046;-58
2023/09/09 03:16:32;;;;;;;6.10;4.70;;;24.00;71.00;;;;;;5115350;28;20079;-58
2023/09/09 03:18:57;;;;;;;5.93;4.82;;;24.00;71.00;;;;;;5115346;28;20104;-59
2023/09/09 03:21:23;;;;;;;6.82;5.13;;;24.00;71.00;;;;;;5115554;28;20372;-59
2023/09/09 03:23:49;;;;;;;5.97;4.70;;;24.00;71.00;;;;;;5114619;28;20043;-58
2023/09/09 03:26:19;;;;;;;6.22;4.85;;;24.00;71.00;;;;;;5115586;28;20475;-58
2023/09/09 03:28:47;;;;;;;5.28;4.35;;;24.00;71.00;;;;;;5115341;28;20047;-58
2023/09/09 03:31:13;;;;;;;6.72;5.07;;;24.00;71.10;;;;;;5114899;28;20043;-59
2023/09/09 03:33:39;;;;;;;6.13;4.78;;;24.00;71.00;;;;;;5115559;28;20043;-59
2023/09/09 03:36:05;;;;;;;5.40;4.22;;;24.00;71.00;;;;;;5115062;28;20047;-59
2023/09/09 03:38:30;;;;;;;6.45;4.68;;;24.00;71.10;;;;;;5113715;28;20059;-58
2023/09/09 03:40:56;;;;;;;5.85;4.88;;;24.00;71.00;;;;;;5114779;28;20367;-58
2023/09/09 03:43:22;;;;;;;6.75;4.70;;;24.00;71.10;;;;;;5115314;28;20047;-59
2023/09/09 03:45:54;;;;;;;5.63;4.50;;;23.90;71.10;;;;;;5114588;28;20081;-58
2023/09/09 03:48:20;;;;;;;6.07;5.00;;;24.00;71.10;;;;;;5115233;28;20498;-59
2023/09/09 03:50:45;;;;;;;6.25;4.82;;;24.00;71.10;;;;;;5114185;28;20048;-59
2023/09/09 03:53:11;;;;;;;7.32;5.03;;;24.00;71.10;;;;;;5114748;28;20176;-59
2023/09/09 03:55:36;;;;;;;7.18;5.10;;;23.90;71.60;;;;;;5114307;28;20128;-58
2023/09/09 03:58:02;;;;;;;6.78;5.00;;;23.90;71.10;;;;;;5112941;28;20050;-58
2023/09/09 04:00:28;;;;;;;6.78;5.05;;;24.00;71.10;;;;;;5111613;28;20044;-58
2023/09/09 04:02:53;;;;;;;6.10;4.65;;;24.00;71.10;;;;;;5109514;28;20046;-58
2023/09/09 04:05:19;;;;;;;5.95;4.68;;;23.90;71.10;;;;;;5093026;28;20123;-59
2023/09/09 04:07:45;;;;;;;5.35;4.70;;;23.90;71.10;;;;;;5091998;28;20044;-59
2023/09/09 04:10:11;;;;;;;6.15;4.93;;;23.90;71.10;;;;;;5094264;28;20040;-59
2023/09/09 04:12:37;;;;;;;6.25;4.93;;;23.90;71.10;;;;;;5093649;28;20044;-58
2023/09/09 04:15:04;;;;;;;6.35;4.90;;;23.90;71.10;;;;;;5094377;28;20086;-59
2023/09/09 04:17:30;;;;;;;5.65;4.68;;;23.90;71.10;;;;;;5093249;28;20120;-58
2023/09/09 04:19:56;;;;;;;6.43;5.32;;;23.90;71.10;;;;;;5093429;28;20130;-58
2023/09/09 04:22:22;;;;;;;6.82;5.30;;;23.90;71.10;;;;;;5093907;28;20079;-59
2023/09/09 04:24:48;;;;;;;6.15;5.07;;;23.90;71.10;;;;;;5093813;28;20082;-58
2023/09/09 04:27:13;;;;;;;6.95;4.97;;;23.90;71.10;;;;;;5093547;28;20036;-58
2023/09/09 04:29:39;;;;;;;6.75;5.28;;;23.90;71.10;;;;;;5092269;28;20075;-58
2023/09/09 04:32:05;;;;;;;5.55;4.45;;;23.90;71.10;;;;;;5094313;28;20533;-58
2023/09/09 04:34:30;;;;;;;6.10;4.93;;;23.90;71.10;;;;;;5092946;28;20051;-59
2023/09/09 04:36:56;;;;;;;6.32;4.95;;;23.90;71.10;;;;;;5093122;28;20048;-58
2023/09/09 04:39:21;;;;;;;7.22;5.15;;;23.90;71.10;;;;;;5093374;28;20538;-59
2023/09/09 04:41:47;;;;;;;7.35;5.38;;;23.80;71.10;;;;;;5093222;28;20071;-58
2023/09/09 04:44:12;;;;;;;6.43;5.03;;;23.90;71.10;;;;;;5093857;28;20403;-58
2023/09/09 04:46:38;;;;;;;6.07;4.72;;;23.90;71.10;;;;;;5093375;28;20173;-59
2023/09/09 04:49:04;;;;;;;6.53;5.10;;;23.80;71.10;;;;;;5091645;28;20044;-58
2023/09/09 04:51:30;;;;;;;6.75;4.82;;;23.80;71.10;;;;;;5099279;28;20035;-59
2023/09/09 04:53:55;;;;;;;5.18;4.50;;;23.80;71.10;;;;;;5108593;28;20057;-59
2023/09/09 04:56:21;;;;;;;5.50;4.68;;;23.80;71.10;;;;;;5104681;28;20467;-59
2023/09/09 04:58:46;;;;;;;6.90;5.03;;;23.80;71.10;;;;;;5112520;28;20042;-59
2023/09/09 05:01:12;;;;;;;6.47;5.13;;;23.80;71.10;;;;;;5113007;28;20054;-59
2023/09/09 05:03:37;;;;;;;6.90;4.97;;;23.80;71.10;;;;;;5113640;28;20043;-59
2023/09/09 05:06:03;;;;;;;7.10;4.88;;;23.80;71.10;;;;;;5113747;28;20039;-59
2023/09/09 05:08:29;;;;;;;6.15;5.13;;;23.80;71.10;;;;;;5111739;28;20071;-59
2023/09/09 05:10:54;;;;;;;5.85;4.65;;;23.80;71.10;;;;;;5093400;28;20131;-59
2023/09/09 05:13:20;;;;;;;7.68;5.10;;;23.80;71.10;;;;;;5093510;28;20105;-59
2023/09/09 05:15:46;;;;;;;6.18;4.70;;;23.80;71.10;;;;;;5091907;28;20407;-59
2023/09/09 05:18:12;;;;;;;7.30;5.25;;;23.80;71.10;;;;;;5092257;28;20051;-59
2023/09/09 05:20:38;;;;;;;5.60;4.57;;;23.80;71.10;;;;;;5092137;28;20040;-59
2023/09/09 05:23:03;;;;;;;6.43;5.10;;;23.80;71.20;;;;;;5092430;28;20071;-59
2023/09/09 05:25:29;;;;;;;6.95;5.47;;;23.80;71.10;;;;;;5093243;28;20131;-59
2023/09/09 05:27:54;;;;;;;7.18;5.13;;;23.80;71.10;;;;;;5092807;28;20036;-59
2023/09/09 05:30:20;;;;;;;6.68;5.13;;;23.80;71.10;;;;;;5090860;28;20436;-59
2023/09/09 05:32:45;;;;;;;5.93;5.05;;;23.70;71.10;;;;;;5092932;28;20036;-59
2023/09/09 05:35:11;;;;;;;6.47;5.10;;;23.70;71.10;;;;;;5092833;28;20070;-59
2023/09/09 05:37:37;;;;;;;6.13;4.85;;;23.80;71.10;;;;;;5091679;28;20048;-59
2023/09/09 05:40:03;;;;;;;5.80;4.80;;;23.70;71.10;;;;;;5092383;28;20051;-59
2023/09/09 05:42:28;;;;;;;7.45;5.75;;;23.80;71.20;;;;;;5093181;28;20089;-59
2023/09/09 05:44:54;;;;;;;6.25;4.97;;;23.70;71.10;;;;;;5091970;28;20052;-60
2023/09/09 05:47:20;;;;;;;6.97;5.03;;;23.70;71.10;;;;;;5092961;28;20063;-59
2023/09/09 05:49:45;;;;;;;6.10;5.30;;;23.70;71.10;;;;;;5092521;28;20051;-60
2023/09/09 05:52:12;;;;;;;7.43;5.40;;;23.70;71.10;;;;;;5091837;28;20048;-59
2023/09/09 05:54:38;;;;;;;6.72;5.38;;;23.70;71.10;;;;;;5091979;28;20036;-60
2023/09/09 05:57:04;;;;;;;6.80;4.60;;;23.70;71.10;;;;;;5092308;28;20455;-59
2023/09/09 05:59:30;;;;;;;6.10;5.05;;;23.70;71.10;;;;;;5091757;28;20048;-59
2023/09/09 06:01:55;;;;;;;7.03;5.45;;;23.70;71.10;;;;;;5091331;28;20115;-59
2023/09/09 06:04:21;;;;;;;6.40;5.30;;;23.70;71.20;;;;;;5091847;28;20051;-59
2023/09/09 06:06:46;;;;;;;6.00;5.35;;;23.70;71.20;;;;;;5092136;28;20048;-59
2023/09/09 06:09:12;;;;;;;5.53;4.57;;;23.70;71.10;;;;;;5091195;28;20040;-59
2023/09/09 06:11:38;;;;;;;6.20;5.07;;;23.70;71.20;;;;;;5097160;28;20047;-59
2023/09/09 06:14:03;;;;;;;7.38;5.57;;;23.70;71.20;;;;;;5112756;28;20592;-59
2023/09/09 06:16:29;;;;;;;5.72;4.82;;;23.70;71.20;;;;;;5112902;28;20100;-59
2023/09/09 06:18:54;;;;;;;8.38;7.07;;;23.70;71.20;;;;;;5110455;28;20042;-59
2023/09/09 06:21:21;;;;;;;26.95;21.65;;;23.70;71.20;;;;;;5112866;28;20123;-57
2023/09/09 06:23:46;;;;;;;27.92;22.80;;;23.70;70.60;;;;;;5112762;28;20055;-56
2023/09/09 06:26:12;;;;;;;29.95;23.50;;;23.70;70.20;;;;;;5112573;28;20036;-57
2023/09/09 06:28:37;;;;;;;33.67;24.88;;;23.70;70.00;;;;;;5113441;28;20482;-56
2023/09/09 06:31:03;;;;;;;30.77;23.20;;;23.60;69.80;;;;;;5116966;27;20044;-57
2023/09/09 06:33:29;;;;;;;30.17;24.67;;;23.50;69.70;;;;;;5116077;28;20134;-56
2023/09/09 06:35:55;;;;;;;31.88;24.98;;;23.50;69.70;;;;;;5115894;28;20040;-57
2023/09/09 06:38:20;;;;;;;29.02;22.90;;;23.50;69.80;;;;;;5116640;28;20419;-57
2023/09/09 06:40:46;;;;;;;28.95;23.75;;;23.50;69.90;;;;;;5115909;28;20054;-57
2023/09/09 06:43:13;;;;;;;31.40;22.92;;;23.50;69.90;;;;;;5116890;28;20039;-57
2023/09/09 06:45:39;;;;;;;30.30;22.65;;;23.50;69.90;;;;;;5115887;28;20047;-57
2023/09/09 06:48:05;;;;;;;29.67;21.98;;;23.50;69.90;;;;;;5115907;28;20044;-58
2023/09/09 06:50:30;;;;;;;25.80;22.45;;;23.50;70.50;;;;;;5116667;28;20040;-57
2023/09/09 06:52:56;;;;;;;29.13;21.55;;;23.50;69.90;;;;;;5116086;28;20047;-57
2023/09/09 06:55:22;;;;;;;30.40;22.35;;;23.40;70.00;;;;;;5115729;28;20043;-58
2023/09/09 06:57:47;;;;;;;27.63;21.75;;;23.50;70.20;;;;;;5116224;28;20479;-58
2023/09/09 07:00:13;;;;;;;28.00;22.05;;;23.50;70.20;;;;;;5116006;28;20390;-57
2023/09/09 07:02:42;;;;;;;29.20;20.95;;;23.50;70.30;;;;;;5115293;28;20135;-57
2023/09/09 07:05:07;;;;;;;25.48;20.80;;;23.40;70.40;;;;;;5114681;28;20126;-57
2023/09/09 07:07:33;;;;;;;26.13;21.05;;;23.40;70.50;;;;;;5115602;28;20090;-58
2023/09/09 07:09:59;;;;;;;25.67;20.95;;;23.40;70.60;;;;;;5114974;28;20071;-57
2023/09/09 07:12:24;;;;;;;27.60;21.05;;;23.50;70.80;;;;;;5116391;28;20035;-57
2023/09/09 07:14:50;;;;;;;25.15;20.48;;;23.40;70.80;;;;;;5114883;28;20046;-57
2023/09/09 07:17:16;;;;;;;25.33;19.77;;;23.50;70.90;;;;;;5116105;28;20040;-58
2023/09/09 07:19:41;;;;;;;25.77;18.75;;;23.40;70.90;;;;;;5115371;28;20031;-57
2023/09/09 07:22:07;;;;;;;25.42;19.02;;;23.50;71.10;;;;;;5115437;28;20044;-57
2023/09/09 07:24:33;;;;;;;24.90;19.48;;;23.50;71.20;;;;;;5115743;28;20047;-57
2023/09/09 07:27:00;;;;;;;23.63;18.83;;;23.50;71.10;;;;;;5115959;28;20109;-57
2023/09/09 07:29:26;;;;;;;22.70;18.42;;;23.50;71.10;;;;;;5114921;28;20046;-57
2023/09/09 07:31:52;;;;;;;23.35;18.52;;;23.50;71.00;;;;;;5115342;28;20044;-57
2023/09/09 07:34:19;;;;;;;27.73;18.58;;;23.50;70.90;;;;;;5115842;28;20038;-57
2023/09/09 07:36:45;;;;;;;24.23;18.87;;;23.50;70.80;;;;;;5114552;28;20417;-57
2023/09/09 07:39:10;;;;;;;26.42;18.20;;;23.50;70.70;;;;;;5115279;28;20301;-57
2023/09/09 07:41:37;;;;;;;23.58;18.83;;;23.50;70.70;;;;;;5114388;28;20047;-57
2023/09/09 07:44:03;;;;;;;25.60;18.92;;;23.50;70.80;;;;;;5114044;28;20104;-56
2023/09/09 07:46:28;;;;;;;26.90;20.08;;;23.60;70.80;;;;;;5099930;28;20032;-57
2023/09/09 07:48:54;;;;;;;26.33;20.05;;;23.50;70.70;;;;;;5094149;28;20040;-56
2023/09/09 07:51:20;;;;;;;25.25;20.95;;;23.50;70.70;;;;;;5093649;28;20127;-56
2023/09/09 07:53:46;;;;;;;27.13;21.20;;;23.60;70.80;;;;;;5084637;28;20122;-56
2023/09/09 07:56:12;;;;;;;26.40;21.00;;;23.60;70.90;;;;;;5084107;28;20062;-57
2023/09/09 07:58:37;;;;;;;24.52;19.88;;;23.50;71.00;;;;;;5093455;28;20044;-58
2023/09/09 08:01:05;;;;;;;24.73;20.20;;;23.50;71.10;;;;;;5092215;28;20040;-56
2023/09/09 08:03:31;;;;;;;24.58;19.95;;;23.50;71.10;;;;;;5081846;28;20054;-57
2023/09/09 08:06:02;;;;;;;27.50;20.35;;;23.50;71.20;;;;;;5093048;28;20035;-56
2023/09/09 08:08:28;;;;;;;22.92;18.48;;;23.50;71.30;;;;;;5093952;28;20093;-57
2023/09/09 08:10:53;;;;;;;23.85;18.55;;;23.60;71.40;;;;;;5093190;28;20048;-56
2023/09/09 08:13:19;;;;;;;26.05;20.30;;;23.50;71.30;;;;;;5090789;28;20097;-57
2023/09/09 08:15:45;;;;;;;24.50;20.48;;;23.60;71.40;;;;;;5093438;28;20122;-56
2023/09/09 08:18:11;;;;;;;23.67;20.63;;;23.60;71.40;;;;;;5090408;28;20048;-56
2023/09/09 08:20:37;;;;;;;28.48;22.33;;;23.60;71.50;;;;;;5094181;28;20044;-57
2023/09/09 08:23:02;;;;;;;24.85;20.00;;;23.60;71.50;;;;;;5078684;28;20047;-57
2023/09/09 08:25:32;;;;;;;25.10;20.20;;;23.60;71.60;;;;;;5072530;28;20504;-57
2023/09/09 08:27:59;;;;;;;26.48;20.33;;;23.70;71.80;;;;;;5073817;28;20138;-57
2023/09/09 08:30:25;;;;;;;25.80;19.55;;;23.70;71.80;;;;;;5073025;28;20045;-57
2023/09/09 08:32:51;;;;;;;25.70;19.55;;;23.70;71.90;;;;;;5072923;28;20111;-57
2023/09/09 08:35:16;;;;;;;25.73;20.08;;;23.70;71.80;;;;;;5073806;28;20463;-56
2023/09/09 08:37:42;;;;;;;25.40;20.40;;;23.70;71.80;;;;;;5073096;28;20504;-57
2023/09/09 08:40:08;;;;;;;27.25;21.38;;;23.70;71.80;;;;;;5073194;28;20060;-56
2023/09/09 08:42:39;;;;;;;30.77;22.80;;;23.70;71.70;;;;;;5072930;28;20065;-57
2023/09/09 08:45:16;;;;;;;28.67;22.92;;;23.70;71.50;;;;;;5073195;28;20051;-56
2023/09/09 08:47:42;;;;;;;29.63;23.33;;;23.70;71.40;;;;;;5072730;28;20094;-57
2023/09/09 08:50:08;;;;;;;28.05;22.30;;;23.70;71.40;;;;;;5073263;28;20080;-57
2023/09/09 08:52:33;;;;;;;30.45;23.02;;;23.70;71.30;;;;;;5065435;28;20056;-57
2023/09/09 08:54:59;;;;;;;33.50;24.20;;;23.80;71.40;;;;;;5074826;28;20391;-56
2023/09/09 08:57:26;;;;;;;30.13;22.67;;;23.80;71.40;;;;;;5074033;28;20087;-57
2023/09/09 08:59:51;;;;;;;26.83;21.58;;;23.80;71.40;;;;;;5091972;28;20044;-56
2023/09/09 09:02:17;;;;;;;29.23;21.30;;;23.90;71.50;;;;;;5086775;28;20109;-57
2023/09/09 09:04:42;;;;;;;26.77;21.15;;;23.90;71.50;;;;;;5085005;28;20044;-56
2023/09/09 09:07:08;;;;;;;29.73;21.65;;;23.90;71.60;;;;;;5087174;28;20044;-57
2023/09/09 09:09:34;;;;;;;29.48;21.98;;;23.90;71.70;;;;;;5092500;28;20032;-57
2023/09/09 09:12:01;;;;;;;27.05;21.23;;;23.90;71.80;;;;;;5093619;28;20143;-57
2023/09/09 09:14:26;;;;;;;27.88;20.65;;;24.00;71.90;;;;;;5091408;28;20044;-57
2023/09/09 09:16:52;;;;;;;26.63;21.10;;;24.00;71.90;;;;;;5093115;28;20089;-57
2023/09/09 09:19:25;;;;;;;25.60;20.88;;;24.00;72.00;;;;;;5092337;28;20036;-57
2023/09/09 09:21:50;;;;;;;26.58;19.65;;;24.00;72.00;;;;;;5093114;28;20080;-58
2023/09/09 09:24:22;;;;;;;23.83;19.42;;;24.00;72.00;;;;;;5112166;28;20040;-57
2023/09/09 09:26:48;;;;;;;22.63;18.17;;;24.00;71.90;;;;;;5111786;28;20044;-57
2023/09/09 09:29:13;;;;;;;23.05;18.52;;;24.00;71.90;;;;;;5112749;28;20043;-57
2023/09/09 09:31:39;;;;;;;22.83;16.88;;;24.00;71.90;;;;;;5112956;28;20044;-57
2023/09/09 09:34:04;;;;;;;25.88;18.83;;;24.00;71.80;;;;;;5099206;28;20040;-57
2023/09/09 09:36:30;;;;;;;28.33;19.52;;;24.00;71.80;;;;;;5091971;28;20036;-57
2023/09/09 09:38:56;;;;;;;22.83;17.10;;;24.10;71.80;;;;;;5092614;28;20055;-58
2023/09/09 09:41:22;;;;;;;22.42;17.15;;;24.10;71.90;;;;;;5091572;28;20123;-58
2023/09/09 09:43:48;;;;;;;25.08;16.50;;;24.10;71.80;;;;;;5091651;28;20054;-58
2023/09/09 09:46:18;;;;;;;21.38;16.25;;;24.10;71.70;;;;;;5092780;28;20047;-58
2023/09/09 09:48:44;;;;;;;23.40;17.15;;;24.10;71.80;;;;;;5091186;28;20050;-58
2023/09/09 09:51:13;;;;;;;21.65;15.68;;;24.10;71.70;;;;;;5091047;28;20387;-58
2023/09/09 09:53:47;;;;;;;22.27;16.27;;;24.10;71.70;;;;;;5088175;28;20090;-58
2023/09/09 09:56:14;;;;;;;20.63;16.45;;;24.10;71.80;;;;;;5088468;28;21245;-58
2023/09/09 09:58:39;;;;;;;22.60;17.55;;;24.10;71.70;;;;;;5089848;28;20119;-58
2023/09/09 10:01:06;;;;;;;20.90;16.70;;;24.10;71.80;;;;;;5083103;28;20127;-58
2023/09/09 10:03:51;;;;;;;21.65;16.42;;;24.10;71.80;;;;;;5090685;28;20113;-58
2023/09/09 10:06:20;;;;;;;16.77;14.70;;;24.10;71.80;;;;;;5091290;28;20062;-58
2023/09/09 10:08:49;;;;;;;18.80;14.90;;;24.20;71.80;;;;;;5094821;28;20036;-58
2023/09/09 10:11:16;;;;;;;17.52;14.57;;;24.20;71.90;;;;;;5080596;28;20039;-58
2023/09/09 10:14:11;;;;;;;18.80;15.13;;;24.20;72.50;;;;;;5096385;28;20048;-58
2023/09/09 10:16:36;;;;;;;21.10;15.13;;;24.20;72.10;;;;;;5089803;28;20059;-58
2023/09/09 10:19:02;;;;;;;18.20;14.48;;;24.20;72.30;;;;;;5081424;28;20384;-58
2023/09/09 10:21:28;;;;;;;19.23;14.38;;;24.20;72.50;;;;;;5065785;28;20052;-58
2023/09/09 10:23:54;;;;;;;20.58;14.55;;;24.20;72.70;;;;;;5082324;28;20412;-57
2023/09/09 10:26:20;;;;;;;20.98;15.05;;;24.20;72.90;;;;;;5081474;28;20141;-59
2023/09/09 10:28:45;;;;;;;18.02;13.93;;;24.20;73.20;;;;;;5071666;28;20492;-58
2023/09/09 10:31:14;;;;;;;18.27;13.55;;;24.20;73.10;;;;;;5088390;28;20032;-58
2023/09/09 10:33:43;;;;;;;16.52;13.57;;;24.30;73.00;;;;;;5080057;28;20072;-58
2023/09/09 10:36:08;;;;;;;19.58;13.27;;;24.30;72.90;;;;;;5081508;28;20055;-58
2023/09/09 10:38:34;;;;;;;16.60;13.27;;;24.30;73.00;;;;;;5087199;28;20162;-58
2023/09/09 10:41:01;;;;;;;18.50;13.77;;;24.30;72.80;;;;;;5087580;28;20044;-59
2023/09/09 10:43:26;;;;;;;17.52;13.23;;;24.30;72.70;;;;;;5087250;28;20036;-59
2023/09/09 10:45:52;;;;;;;18.35;12.73;;;24.30;72.70;;;;;;5087618;28;20040;-60
2023/09/09 10:48:21;;;;;;;15.88;13.00;;;24.30;72.60;;;;;;5089919;28;20044;-59
2023/09/09 10:50:51;;;;;;;17.17;12.73;;;24.30;72.70;;;;;;5074810;28;20047;-59
2023/09/09 10:53:16;;;;;;;15.93;12.90;;;24.30;72.70;;;;;;5091612;28;20048;-59
2023/09/09 10:55:42;;;;;;;18.33;12.98;;;24.40;72.70;;;;;;5091753;28;20048;-59
2023/09/09 10:58:14;;;;;;;13.65;11.77;;;24.30;72.80;;;;;;5092128;28;20075;-59
2023/09/09 11:00:41;;;;;;;16.10;12.30;;;24.40;72.80;;;;;;5073254;28;20040;-59
2023/09/09 11:03:28;;;;;;;18.40;12.27;;;24.40;72.80;;;;;;5089740;28;20455;-59
2023/09/09 11:06:02;;;;;;;14.68;12.38;;;24.40;72.70;;;;;;5090602;28;20487;-58
2023/09/09 11:08:40;;;;;;;16.80;13.10;;;24.40;72.80;;;;;;5090655;28;20474;-58
2023/09/09 11:11:06;;;;;;;17.52;12.40;;;24.40;72.90;;;;;;5092134;28;20055;-59
2023/09/09 11:13:57;;;;;;;14.85;12.40;;;24.40;72.90;;;;;;5091335;28;20052;-58
2023/09/09 11:16:31;;;;;;;14.02;11.45;;;24.40;73.00;;;;;;5073130;28;20041;-58
2023/09/09 11:19:00;;;;;;;14.90;12.15;;;24.40;73.00;;;;;;5086705;28;20051;-59
2023/09/09 11:21:25;;;;;;;15.52;12.02;;;24.40;73.10;;;;;;5083532;28;20083;-59
2023/09/09 11:23:51;;;;;;;16.50;12.38;;;24.50;73.10;;;;;;5093627;28;20093;-58
2023/09/09 11:26:17;;;;;;;13.75;11.52;;;24.50;73.10;;;;;;5094946;28;20050;-58
2023/09/09 11:28:47;;;;;;;14.10;12.48;;;24.50;73.10;;;;;;5090831;28;20063;-58
2023/09/09 11:31:16;;;;;;;13.82;11.88;;;24.40;73.10;;;;;;5095325;28;20039;-58
2023/09/09 11:33:41;;;;;;;15.73;11.80;;;24.40;73.10;;;;;;5084676;28;20404;-59
2023/09/09 11:36:07;;;;;;;15.65;12.27;;;24.50;73.10;;;;;;5074310;28;20048;-58
2023/09/09 11:38:39;;;;;;;14.75;12.32;;;24.50;73.10;;;;;;5074545;28;20048;-59
2023/09/09 11:41:05;;;;;;;13.38;12.00;;;24.50;73.20;;;;;;5075025;28;20044;-58
2023/09/09 11:43:31;;;;;;;14.98;12.20;;;24.50;73.20;;;;;;5073961;28;20158;-59
2023/09/09 11:45:56;;;;;;;14.00;11.88;;;24.50;73.10;;;;;;5094558;28;20039;-58
2023/09/09 11:48:22;;;;;;;16.27;11.55;;;24.50;73.10;;;;;;5094732;28;20039;-58
2023/09/09 11:50:48;;;;;;;15.38;11.30;;;24.50;73.10;;;;;;5092202;28;20455;-58
2023/09/09 11:53:14;;;;;;;13.90;10.93;;;24.50;73.10;;;;;;5094466;28;20044;-58
2023/09/09 11:55:39;;;;;;;15.98;11.60;;;24.50;73.10;;;;;;5093357;28;20032;-59
2023/09/09 11:58:05;;;;;;;15.38;11.57;;;24.50;73.10;;;;;;5093882;28;20365;-58
2023/09/09 12:00:31;;;;;;;13.30;10.93;;;24.50;73.10;;;;;;5094641;28;20055;-58
2023/09/09 12:03:00;;;;;;;12.20;10.90;;;24.60;73.10;;;;;;5092218;28;20432;-56
2023/09/09 12:05:31;;;;;;;13.93;11.20;;;24.50;73.00;;;;;;5094818;28;20044;-57
2023/09/09 12:08:01;;;;;;;12.80;11.10;;;24.50;73.00;;;;;;5092531;28;20047;-56
2023/09/09 12:10:32;;;;;;;13.15;11.45;;;24.60;73.10;;;;;;5104916;28;20036;-57
2023/09/09 12:12:58;;;;;;;12.48;11.18;;;24.50;73.10;;;;;;5112301;28;20087;-57
2023/09/09 12:15:26;;;;;;;11.95;10.68;;;24.60;73.10;;;;;;5092642;28;20083;-57
2023/09/09 12:17:52;;;;;;;13.13;10.80;;;24.60;73.10;;;;;;5093361;28;20042;-57
2023/09/09 12:20:18;;;;;;;14.82;11.15;;;24.60;73.10;;;;;;5093827;28;20056;-57
2023/09/09 12:22:48;;;;;;;15.20;11.85;;;24.60;73.10;;;;;;5093892;28;20478;-57
2023/09/09 12:25:35;;;;;;;12.80;11.45;;;24.60;73.10;;;;;;5093200;28;20043;-57
2023/09/09 12:28:01;;;;;;;12.88;11.27;;;24.60;73.30;;;;;;5091698;28;20036;-58
2023/09/09 12:30:35;;;;;;;12.73;10.82;;;24.60;73.20;;;;;;5094227;28;20085;-55
2023/09/09 12:33:11;;;;;;;12.00;10.18;;;24.60;73.10;;;;;;5093261;28;20040;-57
2023/09/09 12:35:44;;;;;;;13.90;10.40;;;24.70;73.10;;;;;;5093907;28;20526;-57